EGGPEPBY

Guest
Details From EGGP - Liverpool
To EPBY - BYDGOSZCZ Szwederowo
Flight Number -
Tags decoded
Created
Modified
Stats Distance 746 nm / 1,382 km
Max Altitude 0 ft / 0 m
Waypoints 2
Social Downloads 0
Likes 0
Share VATSIM

Download

Looking for another format? Having issues loading an existing format? Contact us
Advertisement - Login to hide

Notes

Requested: EGGP EPBY

Route

EGGP EPBY

ID Type Via Altitude Latitude Longitude Leg Dist Tot Dist Heading (true) Name
O EGGP APT - 0 ft / 0 m 53.33363˚ -2.84977˚ - 0 nm - Liverpool
O EPBY APT - 0 ft / 0 m 53.10300˚ 17.96525˚ 745 nm 745 nm 83° / 99° BYDGOSZCZ Szwederowo

Altitude Profile

Advertisement - Login to hide

Weather


0- 5 10 15 20 25 30 35+ Temperature / ° C

Clouds and Precipitation
Forecast for 2018-05-27 12:00 UTC. Updated 23 minutes ago

Ground ~20,000 ft ~40,000 ft Winds

EGGP

Details ICAO EGGP (LPL)
Name Liverpool
Region United Kingdom
Timezone Europe/London (UTC+1.0)
Stats Elevation 80 ft / 24 m (AMSL)
Location 53.333632° -2.849769°
Runways 1
Magnetic Variation 1.603° W

METAR

EGGP 271120Z 08016KT CAVOK 26/14 Q1017

Decode

TAF

TAF AMD EGGP 270954Z 2710/2806 07009KT 9999 FEW040 PROB40 TEMPO 2710/2720 10015G25KT 4000 +SHRA +TSRA

Decode

Departure Runways

ID Width Length Bearing (true) Bearing (mag) Surface Threshold Offset Overrun Length
09 151 ft / 46 m 7,466 ft / 2,276 m 85.59° 87.19° Asphalt 180 ft / 55 m 0 ft / 0 m
27 151 ft / 46 m 7,466 ft / 2,276 m 265.61° 267.21° Asphalt 0 ft / 0 m 0 ft / 0 m

EPBY

Details ICAO EPBY (BZG)
Name BYDGOSZCZ Szwederowo
Region Poland
Timezone Europe/Warsaw (UTC+2.0)
Stats Elevation 236 ft / 72 m (AMSL)
Location 53.102997° 17.965248°
Runways 4
Magnetic Variation 5.192° E

METAR

EPBY 271130Z 05009KT 010V100 9999 FEW044 25/14 Q1023

Decode

TAF

TAF EPBY 270530Z 2706/2806 09005KT 9999 BKN007 PROB40 2706/2707 4000 BR BKN004 BECMG 2707/2709 CAVOK PROB30 TEMPO 2711/2716 BKN030CB

Decode

Destination Runways

ID Width Length Bearing (true) Bearing (mag) Surface Threshold Offset Overrun Length
03 328 ft / 100 m 1,938 ft / 591 m 30.00° 24.81° Grass 0 ft / 0 m 0 ft / 0 m
08 197 ft / 60 m 8,214 ft / 2,504 m 82.00° 76.81° Concrete 0 ft / 0 m 0 ft / 0 m
08L 328 ft / 100 m 2,135 ft / 651 m 85.00° 79.81° Grass 0 ft / 0 m 0 ft / 0 m
12 328 ft / 100 m 2,135 ft / 651 m 119.89° 114.70° Grass 0 ft / 0 m 0 ft / 0 m
21 328 ft / 100 m 1,938 ft / 591 m 210.00° 204.81° Grass 0 ft / 0 m 0 ft / 0 m
26 197 ft / 60 m 8,214 ft / 2,504 m 262.03° 256.84° Concrete 0 ft / 0 m 0 ft / 0 m
26R 328 ft / 100 m 2,135 ft / 651 m 265.00° 259.81° Grass 0 ft / 0 m 0 ft / 0 m
30 328 ft / 100 m 2,135 ft / 651 m 299.90° 294.71° Grass 0 ft / 0 m 0 ft / 0 m

Approach Navaids

Runway Type Ident Frequency Range Bearing (true) Bearing (mag) Slope Elevation
26 Localiser BYD 109.10 MHz 18 nm / 33 km 262.00° 256.81° - 234 ft / 71 m (AMSL)
26 Glidescope BYD 109.10 MHz 10 nm / 19 km 262.02° 256.83° 3.00° 234 ft / 71 m (AMSL)
26 DME BYD 109.10 MHz 18 nm / 33 km - - - 295 ft / 90 m (AMSL)